Time,TemperatureF,DewpointF,PressureIn,WindDirection,WindDirectionDegrees,WindSpeedMPH,WindSpeedGustMPH,Humidity,HourlyPrecipIn,Conditions,Clouds,dailyrainin,SoftwareType,DateUTC
2014-09-01 00:09:00,59.7,53.0,29.84,SSW,211,0.0,0.0,79,0.00,,,0.00,weatherlink.com 1.10,2014-09-01 07:09:00,
2014-09-01 00:24:00,58.5,52.0,29.83,SSW,211,0.0,0.0,78,0.00,,,0.00,weatherlink.com 1.10,2014-09-01 07:24:00,
2014-09-01 00:39:00,58.5,53.0,29.82,SSW,211,0.0,0.0,82,0.00,,,0.00,weatherlink.com 1.10,2014-09-01 07:39:00,
2014-09-01 00:54:00,59.2,55.0,29.83,SSW,211,0.0,0.0,86,0.00,,,0.00,weatherlink.com 1.10,2014-09-01 07:54:00,
2014-09-01 01:09:00,58.5,54.0,29.83,SSW,211,0.0,0.0,84,0.00,,,0.00,weatherlink.com 1.10,2014-09-01 08:09:00,
2014-09-01 01:24:00,58.0,54.0,29.82,SSW,211,0.0,0.0,85,0.00,,,0.00,weatherlink.com 1.10,2014-09-01 08:24:00,
2014-09-01 01:39:00,59.4,56.0,29.82,SSE,153,0.0,0.0,87,0.00,,,0.00,weatherlink.com 1.10,2014-09-01 08:39:00,
2014-09-01 01:54:00,60.4,56.0,29.82,WNW,298,0.0,1.0,85,0.00,,,0.00,weatherlink.com 1.10,2014-09-01 08:54:00,
2014-09-01 02:09:00,58.2,52.0,29.82,WNW,298,0.0,0.0,80,0.00,,,0.00,weatherlink.com 1.10,2014-09-01 09:09:00,
2014-09-01 02:24:00,56.9,51.0,29.82,WNW,298,0.0,0.0,80,0.00,,,0.00,weatherlink.com 1.10,2014-09-01 09:24:00,
2014-09-01 02:39:00,56.8,51.0,29.82,WNW,298,0.0,0.0,82,0.00,,,0.00,weatherlink.com 1.10,2014-09-01 09:39:00,
2014-09-01 02:54:00,58.1,55.0,29.82,WNW,298,0.0,0.0,89,0.00,,,0.00,weatherlink.com 1.10,2014-09-01 09:54:00,
2014-09-01 03:09:00,58.6,56.0,29.82,WNW,298,0.0,0.0,90,0.00,,,0.00,weatherlink.com 1.10,2014-09-01 10:09:00,
2014-09-01 03:24:00,58.3,56.0,29.82,WNW,298,0.0,0.0,90,0.00,,,0.00,weatherlink.com 1.10,2014-09-01 10:24:00,
2014-09-01 03:39:00,57.8,54.0,29.82,WNW,298,0.0,0.0,88,0.00,,,0.00,weatherlink.com 1.10,2014-09-01 10:39:00,
2014-09-01 03:54:00,57.5,55.0,29.81,WNW,298,0.0,0.0,90,0.00,,,0.00,weatherlink.com 1.10,2014-09-01 10:54:00,
2014-09-01 04:09:00,58.0,55.0,29.82,WNW,298,0.0,0.0,91,0.00,,,0.00,weatherlink.com 1.10,2014-09-01 11:09:00,
2014-09-01 04:24:00,56.2,52.0,29.82,WNW,298,0.0,0.0,85,0.00,,,0.00,weatherlink.com 1.10,2014-09-01 11:24:00,
2014-09-01 04:39:00,56.2,53.0,29.81,WNW,298,0.0,0.0,89,0.00,,,0.00,weatherlink.com 1.10,2014-09-01 11:39:00,
2014-09-01 04:54:00,56.7,54.0,29.81,WNW,298,0.0,0.0,90,0.00,,,0.00,weatherlink.com 1.10,2014-09-01 11:54:00,
2014-09-01 05:10:00,56.6,54.0,29.81,WNW,298,0.0,0.0,91,0.00,,,0.00,weatherlink.com 1.10,2014-09-01 12:10:00,
2014-09-01 05:25:00,56.6,54.0,29.80,WNW,298,0.0,0.0,92,0.00,,,0.00,weatherlink.com 1.10,2014-09-01 12:25:00,
2014-09-01 05:40:00,56.4,54.0,29.81,WNW,298,0.0,0.0,92,0.00,,,0.00,weatherlink.com 1.10,2014-09-01 12:40:00,
2014-09-01 05:55:00,55.8,54.0,29.81,WNW,298,0.0,0.0,92,0.00,,,0.00,weatherlink.com 1.10,2014-09-01 12:55:00,
2014-09-01 06:10:00,55.3,53.0,29.81,WNW,298,0.0,0.0,92,0.00,,,0.00,weatherlink.com 1.10,2014-09-01 13:10:00,
2014-09-01 06:25:00,55.1,53.0,29.82,WNW,298,0.0,0.0,92,0.00,,,0.00,weatherlink.com 1.10,2014-09-01 13:25:00,
2014-09-01 06:40:00,55.4,53.0,29.82,WNW,298,0.0,0.0,92,0.00,,,0.00,weatherlink.com 1.10,2014-09-01 13:40:00,
2014-09-01 06:55:00,55.6,54.0,29.82,WNW,298,0.0,0.0,93,0.00,,,0.00,weatherlink.com 1.10,2014-09-01 13:55:00,
2014-09-01 07:10:00,55.7,54.0,29.82,WNW,298,0.0,0.0,93,0.00,,,0.00,weatherlink.com 1.10,2014-09-01 14:10:00,
2014-09-01 07:25:00,56.2,54.0,29.82,WNW,298,0.0,0.0,93,0.00,,,0.00,weatherlink.com 1.10,2014-09-01 14:25:00,
2014-09-01 07:40:00,57.2,55.0,29.83,WNW,298,0.0,0.0,92,0.00,,,0.00,weatherlink.com 1.10,2014-09-01 14:40:00,
2014-09-01 07:55:00,57.9,54.0,29.84,WNW,298,0.0,0.0,88,0.00,,,0.00,weatherlink.com 1.10,2014-09-01 14:55:00,
2014-09-01 08:10:00,59.5,55.0,29.84,WNW,298,0.0,0.0,86,0.00,,,0.00,weatherlink.com 1.10,2014-09-01 15:10:00,
2014-09-01 08:25:00,61.3,57.0,29.83,WNW,298,0.0,0.0,85,0.00,,,0.00,weatherlink.com 1.10,2014-09-01 15:25:00,
2014-09-01 08:40:00,63.6,58.0,29.84,SW,218,0.0,0.0,81,0.00,,,0.00,weatherlink.com 1.10,2014-09-01 15:40:00,
2014-09-01 08:55:00,65.1,58.0,29.84,ESE,122,0.0,0.0,79,0.00,,,0.00,weatherlink.com 1.10,2014-09-01 15:55:00,
2014-09-01 09:10:00,66.0,59.0,29.83,North,350,0.0,2.0,78,0.00,,,0.00,weatherlink.com 1.10,2014-09-01 16:10:00,
2014-09-01 09:25:00,68.5,59.0,29.84,SE,146,0.0,2.0,72,0.00,,,0.00,weatherlink.com 1.10,2014-09-01 16:25:00,
2014-09-01 09:40:00,71.5,60.0,29.84,SE,125,0.0,1.0,68,0.00,,,0.00,weatherlink.com 1.10,2014-09-01 16:40:00,
2014-09-01 09:55:00,72.8,60.0,29.84,NNW,343,0.0,1.0,65,0.00,,,0.00,weatherlink.com 1.10,2014-09-01 16:55:00,
2014-09-01 10:10:00,76.0,60.0,29.83,SSE,161,0.0,0.0,57,0.00,,,0.00,weatherlink.com 1.10,2014-09-01 17:10:00,
2014-09-01 10:25:00,79.1,59.0,29.83,SSE,149,0.0,1.0,51,0.00,,,0.00,weatherlink.com 1.10,2014-09-01 17:25:00,
2014-09-01 10:40:00,81.0,59.0,29.83,NNW,335,1.0,1.0,47,0.00,,,0.00,weatherlink.com 1.10,2014-09-01 17:40:00,
2014-09-01 10:55:00,82.1,60.0,29.83,NNW,334,1.0,2.0,47,0.00,,,0.00,weatherlink.com 1.10,2014-09-01 17:55:00,
2014-09-01 11:10:00,83.0,57.0,29.83,NNW,330,1.0,4.0,41,0.00,,,0.00,weatherlink.com 1.10,2014-09-01 18:10:00,
2014-09-01 11:26:00,84.5,54.0,29.83,NNW,346,1.0,3.0,35,0.00,,,0.00,weatherlink.com 1.10,2014-09-01 18:26:00,
2014-09-01 11:41:00,86.1,53.0,29.82,East,90,0.0,2.0,32,0.00,,,0.00,weatherlink.com 1.10,2014-09-01 18:41:00,
2014-09-01 11:56:00,86.6,53.0,29.82,WNW,295,1.0,3.0,31,0.00,,,0.00,weatherlink.com 1.10,2014-09-01 18:56:00,
2014-09-01 12:12:00,88.7,53.0,29.82,SE,129,2.0,3.0,29,0.00,,,0.00,weatherlink.com 1.10,2014-09-01 19:12:00,
2014-09-01 12:26:00,89.4,53.0,29.81,NNW,329,3.0,3.0,29,0.00,,,0.00,weatherlink.com 1.10,2014-09-01 19:26:00,
2014-09-01 12:41:00,88.9,52.0,29.81,NNW,332,1.0,2.0,28,0.00,,,0.00,weatherlink.com 1.10,2014-09-01 19:41:00,
2014-09-01 12:56:00,90.6,53.0,29.80,North,354,0.0,5.0,28,0.00,,,0.00,weatherlink.com 1.10,2014-09-01 19:56:00,
2014-09-01 13:11:00,91.8,53.0,29.80,NW,311,2.0,2.0,27,0.00,,,0.00,weatherlink.com 1.10,2014-09-01 20:11:00,
2014-09-01 13:26:00,93.1,54.0,29.79,SSE,158,2.0,3.0,27,0.00,,,0.00,weatherlink.com 1.10,2014-09-01 20:26:00,
2014-09-01 13:45:00,93.7,59.0,29.79,ESE,117,2.0,4.0,31,0.00,,,0.00,weatherlink.com 1.10,2014-09-01 20:45:00,
2014-09-01 14:11:00,92.1,57.0,29.78,North,1,2.0,5.0,30,0.00,,,0.00,weatherlink.com 1.10,2014-09-01 21:11:00,
2014-09-01 14:26:00,91.9,55.0,29.78,NNE,25,2.0,6.0,29,0.00,,,0.00,weatherlink.com 1.10,2014-09-01 21:26:00,
2014-09-01 14:41:00,92.6,57.0,29.77,West,281,0.0,5.0,30,0.00,,,0.00,weatherlink.com 1.10,2014-09-01 21:41:00,
2014-09-01 14:56:00,92.6,59.0,29.77,NNW,343,0.0,4.0,32,0.00,,,0.00,weatherlink.com 1.10,2014-09-01 21:56:00,
2014-09-01 15:11:00,92.9,58.0,29.77,NNW,332,2.0,4.0,31,0.00,,,0.00,weatherlink.com 1.10,2014-09-01 22:11:00,
2014-09-01 15:26:00,92.2,58.0,29.76,WSW,250,1.0,5.0,32,0.00,,,0.00,weatherlink.com 1.10,2014-09-01 22:26:00,
2014-09-01 15:41:00,92.6,56.0,29.76,NW,307,1.0,3.0,29,0.00,,,0.00,weatherlink.com 1.10,2014-09-01 22:41:00,
2014-09-01 15:56:00,92.8,55.0,29.76,NNW,337,1.0,3.0,28,0.00,,,0.00,weatherlink.com 1.10,2014-09-01 22:56:00,
2014-09-01 16:11:00,91.6,56.0,29.75,West,262,0.0,4.0,30,0.00,,,0.00,weatherlink.com 1.10,2014-09-01 23:11:00,
2014-09-01 16:27:00,91.5,56.0,29.75,NW,319,0.0,3.0,30,0.00,,,0.00,weatherlink.com 1.10,2014-09-01 23:27:00,
2014-09-01 16:42:00,91.0,57.0,29.75,SSW,198,0.0,3.0,32,0.00,,,0.00,weatherlink.com 1.10,2014-09-01 23:42:00,
2014-09-01 16:57:00,91.3,56.0,29.75,SW,219,0.0,3.0,30,0.00,,,0.00,weatherlink.com 1.10,2014-09-01 23:57:00,
2014-09-01 17:12:00,90.1,56.0,29.75,NNW,337,0.0,3.0,31,0.00,,,0.00,weatherlink.com 1.10,2014-09-02 00:12:00,
2014-09-01 17:27:00,89.2,56.0,29.74,WNW,293,0.0,3.0,32,0.00,,,0.00,weatherlink.com 1.10,2014-09-02 00:27:00,
2014-09-01 17:42:00,88.6,54.0,29.74,WNW,299,0.0,2.0,31,0.00,,,0.00,weatherlink.com 1.10,2014-09-02 00:42:00,
2014-09-01 17:57:00,88.0,53.0,29.74,SSE,162,0.0,2.0,30,0.00,,,0.00,weatherlink.com 1.10,2014-09-02 00:57:00,
2014-09-01 18:12:00,87.5,52.0,29.74,SSW,193,0.0,0.0,30,0.00,,,0.00,weatherlink.com 1.10,2014-09-02 01:12:00,
2014-09-01 18:27:00,87.0,52.0,29.74,SSE,147,1.0,2.0,30,0.00,,,0.00,weatherlink.com 1.10,2014-09-02 01:27:00,
2014-09-01 18:42:00,86.6,53.0,29.74,South,169,2.0,2.0,31,0.00,,,0.00,weatherlink.com 1.10,2014-09-02 01:42:00,
2014-09-01 18:57:00,85.6,53.0,29.74,NNW,340,0.0,1.0,33,0.00,,,0.00,weatherlink.com 1.10,2014-09-02 01:57:00,
2014-09-01 19:12:00,84.1,51.0,29.74,NNW,335,0.0,0.0,32,0.00,,,0.00,weatherlink.com 1.10,2014-09-02 02:12:00,
2014-09-01 19:27:00,82.4,51.0,29.74,NNW,335,0.0,0.0,33,0.00,,,0.00,weatherlink.com 1.10,2014-09-02 02:27:00,
2014-09-01 19:42:00,80.3,56.0,29.74,SE,136,0.0,0.0,43,0.00,,,0.00,weatherlink.com 1.10,2014-09-02 02:42:00,
2014-09-01 19:57:00,78.8,59.0,29.74,SSE,167,0.0,0.0,51,0.00,,,0.00,weatherlink.com 1.10,2014-09-02 02:57:00,
2014-09-01 20:12:00,76.8,61.0,29.75,SSW,193,0.0,0.0,58,0.00,,,0.00,weatherlink.com 1.10,2014-09-02 03:12:00,
2014-09-01 20:27:00,75.1,61.0,29.75,SSW,193,0.0,0.0,62,0.00,,,0.00,weatherlink.com 1.10,2014-09-02 03:27:00,
2014-09-01 20:42:00,73.7,62.0,29.75,SSW,193,0.0,0.0,66,0.00,,,0.00,weatherlink.com 1.10,2014-09-02 03:42:00,
2014-09-01 20:57:00,72.7,61.0,29.76,SSW,193,0.0,0.0,67,0.00,,,0.00,weatherlink.com 1.10,2014-09-02 03:57:00,
2014-09-01 21:12:00,71.4,61.0,29.76,SSW,193,0.0,0.0,69,0.00,,,0.00,weatherlink.com 1.10,2014-09-02 04:12:00,